sensor_id;sensor_type;location;lat;lon;timestamp;temperature;humidity
7516;DHT22;3799;47.184;8.538;2022-07-09T00:00:06;17.60;53.50
7516;DHT22;3799;47.184;8.538;2022-07-09T00:02:35;17.70;53.60
7516;DHT22;3799;47.184;8.538;2022-07-09T00:05:00;17.90;53.80
7516;DHT22;3799;47.184;8.538;2022-07-09T00:07:26;17.80;54.00
7516;DHT22;3799;47.184;8.538;2022-07-09T00:09:52;17.80;54.10
7516;DHT22;3799;47.184;8.538;2022-07-09T00:12:34;17.80;54.20
7516;DHT22;3799;47.184;8.538;2022-07-09T00:15:00;17.80;54.40
7516;DHT22;3799;47.184;8.538;2022-07-09T00:17:25;17.90;54.50
7516;DHT22;3799;47.184;8.538;2022-07-09T00:19:52;17.80;54.40
7516;DHT22;3799;47.184;8.538;2022-07-09T00:22:18;17.80;54.60
7516;DHT22;3799;47.184;8.538;2022-07-09T00:24:46;17.90;54.80
7516;DHT22;3799;47.184;8.538;2022-07-09T00:27:12;17.90;54.90
7516;DHT22;3799;47.184;8.538;2022-07-09T00:29:38;18.10;55.10
7516;DHT22;3799;47.184;8.538;2022-07-09T00:32:06;17.90;55.10
7516;DHT22;3799;47.184;8.538;2022-07-09T00:34:31;18.00;55.20
7516;DHT22;3799;47.184;8.538;2022-07-09T00:36:59;17.90;55.20
7516;DHT22;3799;47.184;8.538;2022-07-09T00:39:27;18.00;55.70
7516;DHT22;3799;47.184;8.538;2022-07-09T00:42:04;17.90;55.40
7516;DHT22;3799;47.184;8.538;2022-07-09T00:44:30;17.80;55.50
7516;DHT22;3799;47.184;8.538;2022-07-09T00:46:55;17.90;55.70
7516;DHT22;3799;47.184;8.538;2022-07-09T00:49:21;18.20;56.10
7516;DHT22;3799;47.184;8.538;2022-07-09T00:51:47;17.90;56.10
7516;DHT22;3799;47.184;8.538;2022-07-09T00:54:23;18.00;56.50
7516;DHT22;3799;47.184;8.538;2022-07-09T00:56:51;17.80;56.70
7516;DHT22;3799;47.184;8.538;2022-07-09T00:59:18;17.80;57.10
7516;DHT22;3799;47.184;8.538;2022-07-09T01:01:43;17.80;57.50
7516;DHT22;3799;47.184;8.538;2022-07-09T01:04:09;17.80;57.90
7516;DHT22;3799;47.184;8.538;2022-07-09T01:06:35;17.90;58.30
7516;DHT22;3799;47.184;8.538;2022-07-09T01:09:02;18.00;58.70
7516;DHT22;3799;47.184;8.538;2022-07-09T01:11:28;17.90;58.90
7516;DHT22;3799;47.184;8.538;2022-07-09T01:13:54;17.60;58.90
7516;DHT22;3799;47.184;8.538;2022-07-09T01:16:19;17.80;59.00
7516;DHT22;3799;47.184;8.538;2022-07-09T01:18:49;17.80;58.90
7516;DHT22;3799;47.184;8.538;2022-07-09T01:21:15;17.80;58.70
7516;DHT22;3799;47.184;8.538;2022-07-09T01:23:41;17.20;58.70
7516;DHT22;3799;47.184;8.538;2022-07-09T01:26:08;17.20;59.30
7516;DHT22;3799;47.184;8.538;2022-07-09T01:28:33;16.90;60.10
7516;DHT22;3799;47.184;8.538;2022-07-09T01:30:59;17.00;61.80
7516;DHT22;3799;47.184;8.538;2022-07-09T01:33:28;16.70;63.40
7516;DHT22;3799;47.184;8.538;2022-07-09T01:35:57;16.90;64.30
7516;DHT22;3799;47.184;8.538;2022-07-09T01:38:23;16.70;65.60
7516;DHT22;3799;47.184;8.538;2022-07-09T01:40:48;16.60;67.00
7516;DHT22;3799;47.184;8.538;2022-07-09T01:43:14;16.60;68.30
7516;DHT22;3799;47.184;8.538;2022-07-09T01:45:40;16.60;69.30
7516;DHT22;3799;47.184;8.538;2022-07-09T01:48:06;16.50;70.00
7516;DHT22;3799;47.184;8.538;2022-07-09T01:50:31;16.50;70.30
7516;DHT22;3799;47.184;8.538;2022-07-09T01:52:57;16.70;70.90
7516;DHT22;3799;47.184;8.538;2022-07-09T01:55:23;16.50;71.50
7516;DHT22;3799;47.184;8.538;2022-07-09T01:57:48;16.60;72.30
7516;DHT22;3799;47.184;8.538;2022-07-09T02:00:16;16.50;72.70
7516;DHT22;3799;47.184;8.538;2022-07-09T02:02:44;16.40;73.30
7516;DHT22;3799;47.184;8.538;2022-07-09T02:05:12;16.60;74.40
7516;DHT22;3799;47.184;8.538;2022-07-09T02:07:38;16.40;75.50
7516;DHT22;3799;47.184;8.538;2022-07-09T02:10:04;16.20;76.10
7516;DHT22;3799;47.184;8.538;2022-07-09T02:12:30;16.00;76.70
7516;DHT22;3799;47.184;8.538;2022-07-09T02:14:56;16.30;77.80
7516;DHT22;3799;47.184;8.538;2022-07-09T02:17:21;16.00;78.90
7516;DHT22;3799;47.184;8.538;2022-07-09T02:19:47;16.00;80.20
7516;DHT22;3799;47.184;8.538;2022-07-09T02:22:13;16.20;81.10
7516;DHT22;3799;47.184;8.538;2022-07-09T02:24:38;16.00;80.90
7516;DHT22;3799;47.184;8.538;2022-07-09T02:27:04;16.30;81.90
7516;DHT22;3799;47.184;8.538;2022-07-09T02:29:30;16.40;82.80
7516;DHT22;3799;47.184;8.538;2022-07-09T02:31:56;16.40;83.70
7516;DHT22;3799;47.184;8.538;2022-07-09T02:34:23;16.00;83.40
7516;DHT22;3799;47.184;8.538;2022-07-09T02:36:49;16.40;84.00
7516;DHT22;3799;47.184;8.538;2022-07-09T02:39:15;16.00;83.40
7516;DHT22;3799;47.184;8.538;2022-07-09T02:41:41;16.10;83.80
7516;DHT22;3799;47.184;8.538;2022-07-09T02:44:11;16.10;84.40
7516;DHT22;3799;47.184;8.538;2022-07-09T02:46:37;15.70;85.70
7516;DHT22;3799;47.184;8.538;2022-07-09T02:49:05;15.60;87.00
7516;DHT22;3799;47.184;8.538;2022-07-09T02:51:30;15.40;88.40
7516;DHT22;3799;47.184;8.538;2022-07-09T02:53:56;15.20;89.60
7516;DHT22;3799;47.184;8.538;2022-07-09T02:56:31;15.30;90.60
7516;DHT22;3799;47.184;8.538;2022-07-09T02:58:56;15.20;91.20
7516;DHT22;3799;47.184;8.538;2022-07-09T03:01:22;15.30;91.50
7516;DHT22;3799;47.184;8.538;2022-07-09T03:03:48;15.10;91.70
7516;DHT22;3799;47.184;8.538;2022-07-09T03:06:13;15.10;92.20
7516;DHT22;3799;47.184;8.538;2022-07-09T03:08:41;15.00;92.10
7516;DHT22;3799;47.184;8.538;2022-07-09T03:11:07;15.20;92.60
7516;DHT22;3799;47.184;8.538;2022-07-09T03:13:35;15.10;92.80
7516;DHT22;3799;47.184;8.538;2022-07-09T03:16:02;15.00;93.00
7516;DHT22;3799;47.184;8.538;2022-07-09T03:18:32;15.20;93.30
7516;DHT22;3799;47.184;8.538;2022-07-09T03:20:59;15.10;93.50
7516;DHT22;3799;47.184;8.538;2022-07-09T03:23:25;15.10;93.70
7516;DHT22;3799;47.184;8.538;2022-07-09T03:25:51;14.90;93.60
7516;DHT22;3799;47.184;8.538;2022-07-09T03:28:16;14.80;93.50
7516;DHT22;3799;47.184;8.538;2022-07-09T03:30:42;15.30;93.90
7516;DHT22;3799;47.184;8.538;2022-07-09T03:33:08;15.00;93.90
7516;DHT22;3799;47.184;8.538;2022-07-09T03:35:33;14.90;93.90
7516;DHT22;3799;47.184;8.538;2022-07-09T03:37:59;14.70;94.20
7516;DHT22;3799;47.184;8.538;2022-07-09T03:40:25;14.80;94.40
7516;DHT22;3799;47.184;8.538;2022-07-09T03:42:51;14.70;94.80
7516;DHT22;3799;47.184;8.538;2022-07-09T03:45:19;14.80;95.60
7516;DHT22;3799;47.184;8.538;2022-07-09T03:47:44;14.80;96.20
7516;DHT22;3799;47.184;8.538;2022-07-09T03:50:10;14.20;96.40
7516;DHT22;3799;47.184;8.538;2022-07-09T03:52:37;14.30;96.50
7516;DHT22;3799;47.184;8.538;2022-07-09T03:55:03;14.20;96.60
7516;DHT22;3799;47.184;8.538;2022-07-09T03:57:29;14.60;96.70
7516;DHT22;3799;47.184;8.538;2022-07-09T03:59:58;14.60;96.50
7516;DHT22;3799;47.184;8.538;2022-07-09T04:02:26;14.50;96.40
7516;DHT22;3799;47.184;8.538;2022-07-09T04:04:51;14.40;96.30
7516;DHT22;3799;47.184;8.538;2022-07-09T04:07:17;14.50;96.60
7516;DHT22;3799;47.184;8.538;2022-07-09T04:09:43;14.40;96.80
7516;DHT22;3799;47.184;8.538;2022-07-09T04:12:12;14.40;97.10
7516;DHT22;3799;47.184;8.538;2022-07-09T04:14:40;14.30;97.10
7516;DHT22;3799;47.184;8.538;2022-07-09T04:17:07;14.40;97.30
7516;DHT22;3799;47.184;8.538;2022-07-09T04:19:38;14.40;97.60
7516;DHT22;3799;47.184;8.538;2022-07-09T04:22:04;14.20;97.70
7516;DHT22;3799;47.184;8.538;2022-07-09T04:24:30;14.30;98.10
7516;DHT22;3799;47.184;8.538;2022-07-09T04:26:56;14.50;98.20
7516;DHT22;3799;47.184;8.538;2022-07-09T04:29:22;14.70;98.00
7516;DHT22;3799;47.184;8.538;2022-07-09T04:31:48;14.70;97.50
7516;DHT22;3799;47.184;8.538;2022-07-09T04:34:13;14.60;97.30
7516;DHT22;3799;47.184;8.538;2022-07-09T04:36:39;14.60;97.40
7516;DHT22;3799;47.184;8.538;2022-07-09T04:39:05;14.90;97.80
7516;DHT22;3799;47.184;8.538;2022-07-09T04:41:33;14.80;97.50
7516;DHT22;3799;47.184;8.538;2022-07-09T04:43:59;15.10;97.60
7516;DHT22;3799;47.184;8.538;2022-07-09T04:46:25;14.80;97.20
7516;DHT22;3799;47.184;8.538;2022-07-09T04:48:52;15.10;97.40
7516;DHT22;3799;47.184;8.538;2022-07-09T04:51:18;14.90;97.50
7516;DHT22;3799;47.184;8.538;2022-07-09T04:53:44;14.90;97.60
7516;DHT22;3799;47.184;8.538;2022-07-09T04:56:09;15.10;97.60
7516;DHT22;3799;47.184;8.538;2022-07-09T04:58:35;14.90;97.20
7516;DHT22;3799;47.184;8.538;2022-07-09T05:01:03;15.20;97.40
7516;DHT22;3799;47.184;8.538;2022-07-09T05:03:29;15.20;97.90
7516;DHT22;3799;47.184;8.538;2022-07-09T05:05:54;15.30;97.80
7516;DHT22;3799;47.184;8.538;2022-07-09T05:08:20;15.40;97.70
7516;DHT22;3799;47.184;8.538;2022-07-09T05:10:46;15.10;97.60
7516;DHT22;3799;47.184;8.538;2022-07-09T05:13:11;15.30;97.80
7516;DHT22;3799;47.184;8.538;2022-07-09T05:15:37;15.30;97.70
7516;DHT22;3799;47.184;8.538;2022-07-09T05:18:03;15.50;97.80
7516;DHT22;3799;47.184;8.538;2022-07-09T05:20:28;15.60;97.90
7516;DHT22;3799;47.184;8.538;2022-07-09T05:22:54;15.60;97.80
7516;DHT22;3799;47.184;8.538;2022-07-09T05:25:20;15.90;97.80
7516;DHT22;3799;47.184;8.538;2022-07-09T05:27:46;15.80;97.60
7516;DHT22;3799;47.184;8.538;2022-07-09T05:30:13;15.80;97.90
7516;DHT22;3799;47.184;8.538;2022-07-09T05:32:41;15.90;98.10
7516;DHT22;3799;47.184;8.538;2022-07-09T05:35:07;16.10;98.40
7516;DHT22;3799;47.184;8.538;2022-07-09T05:37:33;16.50;98.70
7516;DHT22;3799;47.184;8.538;2022-07-09T05:40:03;16.40;98.70
7516;DHT22;3799;47.184;8.538;2022-07-09T05:42:32;16.30;98.60
7516;DHT22;3799;47.184;8.538;2022-07-09T05:44:58;16.40;98.80
7516;DHT22;3799;47.184;8.538;2022-07-09T05:47:24;16.60;99.10
7516;DHT22;3799;47.184;8.538;2022-07-09T05:49:51;16.50;99.10
7516;DHT22;3799;47.184;8.538;2022-07-09T05:52:20;16.60;99.20
7516;DHT22;3799;47.184;8.538;2022-07-09T05:54:45;16.70;99.40
7516;DHT22;3799;47.184;8.538;2022-07-09T05:57:11;16.70;99.40
7516;DHT22;3799;47.184;8.538;2022-07-09T05:59:36;17.00;99.60
7516;DHT22;3799;47.184;8.538;2022-07-09T06:02:02;17.10;99.70
7516;DHT22;3799;47.184;8.538;2022-07-09T06:04:30;16.90;99.60
7516;DHT22;3799;47.184;8.538;2022-07-09T06:06:56;17.00;99.60
7516;DHT22;3799;47.184;8.538;2022-07-09T06:09:24;17.20;99.60
7516;DHT22;3799;47.184;8.538;2022-07-09T06:11:50;17.20;99.50
7516;DHT22;3799;47.184;8.538;2022-07-09T06:14:16;17.00;99.30
7516;DHT22;3799;47.184;8.538;2022-07-09T06:16:42;17.10;99.30
7516;DHT22;3799;47.184;8.538;2022-07-09T06:19:08;17.30;99.30
7516;DHT22;3799;47.184;8.538;2022-07-09T06:21:33;17.10;99.10
7516;DHT22;3799;47.184;8.538;2022-07-09T06:23:59;17.30;99.00
7516;DHT22;3799;47.184;8.538;2022-07-09T06:26:25;17.40;99.00
7516;DHT22;3799;47.184;8.538;2022-07-09T06:28:50;17.70;99.20
7516;DHT22;3799;47.184;8.538;2022-07-09T06:31:16;17.60;99.00
7516;DHT22;3799;47.184;8.538;2022-07-09T06:33:42;17.40;98.60
7516;DHT22;3799;47.184;8.538;2022-07-09T06:36:10;17.60;98.50
7516;DHT22;3799;47.184;8.538;2022-07-09T06:38:38;17.70;98.10
7516;DHT22;3799;47.184;8.538;2022-07-09T06:41:24;17.70;97.70
7516;DHT22;3799;47.184;8.538;2022-07-09T06:43:52;17.90;97.50
7516;DHT22;3799;47.184;8.538;2022-07-09T06:46:17;17.90;97.30
7516;DHT22;3799;47.184;8.538;2022-07-09T06:48:52;18.10;97.10
7516;DHT22;3799;47.184;8.538;2022-07-09T06:51:17;18.00;96.60
7516;DHT22;3799;47.184;8.538;2022-07-09T06:53:43;18.60;96.30
7516;DHT22;3799;47.184;8.538;2022-07-09T06:56:09;18.20;95.70
7516;DHT22;3799;47.184;8.538;2022-07-09T06:58:34;18.50;95.50
7516;DHT22;3799;47.184;8.538;2022-07-09T07:01:00;18.30;95.00
7516;DHT22;3799;47.184;8.538;2022-07-09T07:03:26;18.70;94.90
7516;DHT22;3799;47.184;8.538;2022-07-09T07:05:51;18.90;94.60
7516;DHT22;3799;47.184;8.538;2022-07-09T07:08:19;19.10;94.20
7516;DHT22;3799;47.184;8.538;2022-07-09T07:10:47;19.20;93.90
7516;DHT22;3799;47.184;8.538;2022-07-09T07:13:13;19.10;92.90
7516;DHT22;3799;47.184;8.538;2022-07-09T07:15:39;19.30;92.30
7516;DHT22;3799;47.184;8.538;2022-07-09T07:18:05;19.20;91.70
7516;DHT22;3799;47.184;8.538;2022-07-09T07:20:31;19.60;91.60
7516;DHT22;3799;47.184;8.538;2022-07-09T07:23:03;19.40;90.90
7516;DHT22;3799;47.184;8.538;2022-07-09T07:25:31;19.50;90.20
7516;DHT22;3799;47.184;8.538;2022-07-09T07:27:57;19.60;90.00
7516;DHT22;3799;47.184;8.538;2022-07-09T07:30:23;19.40;89.60
7516;DHT22;3799;47.184;8.538;2022-07-09T07:32:49;20.00;90.10
7516;DHT22;3799;47.184;8.538;2022-07-09T07:35:15;20.00;88.80
7516;DHT22;3799;47.184;8.538;2022-07-09T07:37:41;19.90;87.00
7516;DHT22;3799;47.184;8.538;2022-07-09T07:40:07;19.80;86.40
7516;DHT22;3799;47.184;8.538;2022-07-09T07:42:32;20.00;86.50
7516;DHT22;3799;47.184;8.538;2022-07-09T07:45:01;20.20;86.10
7516;DHT22;3799;47.184;8.538;2022-07-09T07:47:27;20.00;85.40
7516;DHT22;3799;47.184;8.538;2022-07-09T07:49:53;20.20;85.50
7516;DHT22;3799;47.184;8.538;2022-07-09T07:52:19;20.30;83.20
7516;DHT22;3799;47.184;8.538;2022-07-09T07:54:45;20.30;81.90
7516;DHT22;3799;47.184;8.538;2022-07-09T07:57:11;20.60;79.80
7516;DHT22;3799;47.184;8.538;2022-07-09T07:59:37;20.40;79.50
7516;DHT22;3799;47.184;8.538;2022-07-09T08:02:03;20.40;79.90
7516;DHT22;3799;47.184;8.538;2022-07-09T08:04:28;20.50;79.70
7516;DHT22;3799;47.184;8.538;2022-07-09T08:07:09;20.70;78.90
7516;DHT22;3799;47.184;8.538;2022-07-09T08:09:35;20.80;78.70
7516;DHT22;3799;47.184;8.538;2022-07-09T08:12:01;20.90;77.70
7516;DHT22;3799;47.184;8.538;2022-07-09T08:14:27;20.90;76.70
7516;DHT22;3799;47.184;8.538;2022-07-09T08:16:52;21.00;76.10
7516;DHT22;3799;47.184;8.538;2022-07-09T08:19:18;21.10;76.20
7516;DHT22;3799;47.184;8.538;2022-07-09T08:21:44;21.20;75.30
7516;DHT22;3799;47.184;8.538;2022-07-09T08:24:10;21.20;72.20
7516;DHT22;3799;47.184;8.538;2022-07-09T08:26:36;21.30;72.40
7516;DHT22;3799;47.184;8.538;2022-07-09T08:29:01;21.40;72.60
7516;DHT22;3799;47.184;8.538;2022-07-09T08:31:27;21.60;72.40
7516;DHT22;3799;47.184;8.538;2022-07-09T08:33:53;21.50;71.00
7516;DHT22;3799;47.184;8.538;2022-07-09T08:36:27;21.70;72.20
7516;DHT22;3799;47.184;8.538;2022-07-09T08:38:52;21.80;70.10
7516;DHT22;3799;47.184;8.538;2022-07-09T08:41:18;21.90;70.00
7516;DHT22;3799;47.184;8.538;2022-07-09T08:43:51;22.00;67.30
7516;DHT22;3799;47.184;8.538;2022-07-09T08:46:18;22.10;66.80
7516;DHT22;3799;47.184;8.538;2022-07-09T08:48:44;22.20;64.80
7516;DHT22;3799;47.184;8.538;2022-07-09T08:51:11;22.30;62.80
7516;DHT22;3799;47.184;8.538;2022-07-09T08:53:42;22.30;62.80
7516;DHT22;3799;47.184;8.538;2022-07-09T08:56:09;22.50;60.20
7516;DHT22;3799;47.184;8.538;2022-07-09T08:58:35;22.50;60.10
7516;DHT22;3799;47.184;8.538;2022-07-09T09:01:01;22.60;59.70
7516;DHT22;3799;47.184;8.538;2022-07-09T09:03:27;22.70;59.30
7516;DHT22;3799;47.184;8.538;2022-07-09T09:06:07;22.70;60.00
7516;DHT22;3799;47.184;8.538;2022-07-09T09:08:44;22.90;59.10
7516;DHT22;3799;47.184;8.538;2022-07-09T09:11:20;23.00;59.50
7516;DHT22;3799;47.184;8.538;2022-07-09T09:13:47;23.00;57.80
7516;DHT22;3799;47.184;8.538;2022-07-09T09:16:24;23.00;56.20
7516;DHT22;3799;47.184;8.538;2022-07-09T09:18:53;23.00;55.70
7516;DHT22;3799;47.184;8.538;2022-07-09T09:21:21;23.00;56.00
7516;DHT22;3799;47.184;8.538;2022-07-09T09:23:56;23.20;55.60
7516;DHT22;3799;47.184;8.538;2022-07-09T09:26:27;23.30;55.50
7516;DHT22;3799;47.184;8.538;2022-07-09T09:28:54;23.30;55.20
7516;DHT22;3799;47.184;8.538;2022-07-09T09:31:27;23.50;54.20
7516;DHT22;3799;47.184;8.538;2022-07-09T09:33:56;23.60;54.20
7516;DHT22;3799;47.184;8.538;2022-07-09T09:36:33;23.60;54.70
7516;DHT22;3799;47.184;8.538;2022-07-09T09:39:25;23.80;55.50
7516;DHT22;3799;47.184;8.538;2022-07-09T09:42:02;23.90;56.50
7516;DHT22;3799;47.184;8.538;2022-07-09T09:44:34;24.10;56.00
7516;DHT22;3799;47.184;8.538;2022-07-09T09:47:04;24.20;56.70
7516;DHT22;3799;47.184;8.538;2022-07-09T09:49:30;24.30;55.60
7516;DHT22;3799;47.184;8.538;2022-07-09T09:52:02;24.40;54.60
7516;DHT22;3799;47.184;8.538;2022-07-09T09:54:28;24.40;54.70
7516;DHT22;3799;47.184;8.538;2022-07-09T09:56:58;24.50;54.80
7516;DHT22;3799;47.184;8.538;2022-07-09T09:59:24;24.50;53.00
7516;DHT22;3799;47.184;8.538;2022-07-09T10:01:50;24.50;53.60
7516;DHT22;3799;47.184;8.538;2022-07-09T10:04:16;24.50;53.20
7516;DHT22;3799;47.184;8.538;2022-07-09T10:06:42;24.40;54.80
7516;DHT22;3799;47.184;8.538;2022-07-09T10:09:11;24.40;53.00
7516;DHT22;3799;47.184;8.538;2022-07-09T10:11:42;24.50;54.20
7516;DHT22;3799;47.184;8.538;2022-07-09T10:14:14;24.70;54.40
7516;DHT22;3799;47.184;8.538;2022-07-09T10:16:40;24.80;53.70
7516;DHT22;3799;47.184;8.538;2022-07-09T10:19:06;25.00;52.10
7516;DHT22;3799;47.184;8.538;2022-07-09T10:24:04;24.90;51.20
7516;DHT22;3799;47.184;8.538;2022-07-09T10:29:18;25.20;50.70
7516;DHT22;3799;47.184;8.538;2022-07-09T10:31:46;25.30;52.00
7516;DHT22;3799;47.184;8.538;2022-07-09T10:37:00;25.60;50.30
7516;DHT22;3799;47.184;8.538;2022-07-09T10:39:27;25.70;50.00
7516;DHT22;3799;47.184;8.538;2022-07-09T10:42:06;25.90;49.90
7516;DHT22;3799;47.184;8.538;2022-07-09T10:44:40;26.00;48.50
7516;DHT22;3799;47.184;8.538;2022-07-09T10:47:06;26.10;50.60
7516;DHT22;3799;47.184;8.538;2022-07-09T10:49:35;26.10;49.50
7516;DHT22;3799;47.184;8.538;2022-07-09T10:52:06;26.20;48.80
7516;DHT22;3799;47.184;8.538;2022-07-09T10:54:32;26.30;48.50
7516;DHT22;3799;47.184;8.538;2022-07-09T10:57:00;26.40;48.30
7516;DHT22;3799;47.184;8.538;2022-07-09T10:59:29;26.50;47.80
7516;DHT22;3799;47.184;8.538;2022-07-09T11:01:54;26.50;47.60
7516;DHT22;3799;47.184;8.538;2022-07-09T11:04:30;26.50;47.40
7516;DHT22;3799;47.184;8.538;2022-07-09T11:06:56;26.50;47.10
7516;DHT22;3799;47.184;8.538;2022-07-09T11:09:25;26.60;47.60
7516;DHT22;3799;47.184;8.538;2022-07-09T11:11:51;26.60;47.10
7516;DHT22;3799;47.184;8.538;2022-07-09T11:14:17;26.60;46.50
7516;DHT22;3799;47.184;8.538;2022-07-09T11:16:53;26.50;46.20
7516;DHT22;3799;47.184;8.538;2022-07-09T11:19:19;26.60;46.80
7516;DHT22;3799;47.184;8.538;2022-07-09T11:21:45;26.80;47.40
7516;DHT22;3799;47.184;8.538;2022-07-09T11:24:19;26.90;48.00
7516;DHT22;3799;47.184;8.538;2022-07-09T11:26:46;27.00;47.50
7516;DHT22;3799;47.184;8.538;2022-07-09T11:29:16;27.10;46.40
7516;DHT22;3799;47.184;8.538;2022-07-09T11:31:52;27.10;45.60
7516;DHT22;3799;47.184;8.538;2022-07-09T11:34:19;27.10;45.50
7516;DHT22;3799;47.184;8.538;2022-07-09T11:36:47;27.30;44.90
7516;DHT22;3799;47.184;8.538;2022-07-09T11:39:31;27.60;44.80
7516;DHT22;3799;47.184;8.538;2022-07-09T11:42:03;27.90;44.70
7516;DHT22;3799;47.184;8.538;2022-07-09T11:44:31;28.10;44.50
7516;DHT22;3799;47.184;8.538;2022-07-09T11:47:09;28.30;43.90
7516;DHT22;3799;47.184;8.538;2022-07-09T11:49:41;28.50;44.30
7516;DHT22;3799;47.184;8.538;2022-07-09T11:52:24;28.70;45.50
7516;DHT22;3799;47.184;8.538;2022-07-09T11:55:06;28.90;44.60
7516;DHT22;3799;47.184;8.538;2022-07-09T11:57:35;29.10;43.50
7516;DHT22;3799;47.184;8.538;2022-07-09T12:00:03;29.30;42.90
7516;DHT22;3799;47.184;8.538;2022-07-09T12:02:36;29.60;42.10
7516;DHT22;3799;47.184;8.538;2022-07-09T12:05:07;29.80;41.10
7516;DHT22;3799;47.184;8.538;2022-07-09T12:07:33;30.00;40.50
7516;DHT22;3799;47.184;8.538;2022-07-09T12:10:06;30.00;39.90
7516;DHT22;3799;47.184;8.538;2022-07-09T12:12:33;29.90;39.20
7516;DHT22;3799;47.184;8.538;2022-07-09T12:15:00;29.80;39.20
7516;DHT22;3799;47.184;8.538;2022-07-09T12:17:27;29.60;41.60
7516;DHT22;3799;47.184;8.538;2022-07-09T12:19:55;29.60;41.40
7516;DHT22;3799;47.184;8.538;2022-07-09T12:22:21;29.50;40.40
7516;DHT22;3799;47.184;8.538;2022-07-09T12:24:49;29.70;40.10
7516;DHT22;3799;47.184;8.538;2022-07-09T12:27:22;30.00;40.20
7516;DHT22;3799;47.184;8.538;2022-07-09T12:29:48;30.30;40.00
7516;DHT22;3799;47.184;8.538;2022-07-09T12:32:14;30.30;39.90
7516;DHT22;3799;47.184;8.538;2022-07-09T12:34:39;30.50;39.90
7516;DHT22;3799;47.184;8.538;2022-07-09T12:37:05;30.50;40.70
7516;DHT22;3799;47.184;8.538;2022-07-09T12:39:31;30.50;40.50
7516;DHT22;3799;47.184;8.538;2022-07-09T12:41:57;30.60;40.30
7516;DHT22;3799;47.184;8.538;2022-07-09T12:44:24;30.90;39.50
7516;DHT22;3799;47.184;8.538;2022-07-09T12:46:50;31.20;38.50
7516;DHT22;3799;47.184;8.538;2022-07-09T12:49:16;31.30;39.20
7516;DHT22;3799;47.184;8.538;2022-07-09T12:51:42;31.40;39.20
7516;DHT22;3799;47.184;8.538;2022-07-09T12:54:07;31.40;38.90
7516;DHT22;3799;47.184;8.538;2022-07-09T12:56:33;31.50;38.90
7516;DHT22;3799;47.184;8.538;2022-07-09T12:58:59;31.70;40.20
7516;DHT22;3799;47.184;8.538;2022-07-09T13:01:24;31.70;39.20
7516;DHT22;3799;47.184;8.538;2022-07-09T13:03:50;31.80;38.90
7516;DHT22;3799;47.184;8.538;2022-07-09T13:06:16;32.00;38.90
7516;DHT22;3799;47.184;8.538;2022-07-09T13:09:04;32.30;38.20
7516;DHT22;3799;47.184;8.538;2022-07-09T13:11:31;32.50;37.30
7516;DHT22;3799;47.184;8.538;2022-07-09T13:13:57;32.60;37.50
7516;DHT22;3799;47.184;8.538;2022-07-09T13:16:35;32.80;37.30
7516;DHT22;3799;47.184;8.538;2022-07-09T13:19:02;33.00;37.10
7516;DHT22;3799;47.184;8.538;2022-07-09T13:21:27;33.10;37.40
7516;DHT22;3799;47.184;8.538;2022-07-09T13:23:55;33.20;37.50
7516;DHT22;3799;47.184;8.538;2022-07-09T13:26:21;33.40;37.90
7516;DHT22;3799;47.184;8.538;2022-07-09T13:28:47;33.30;38.40
7516;DHT22;3799;47.184;8.538;2022-07-09T13:31:13;33.30;37.60
7516;DHT22;3799;47.184;8.538;2022-07-09T13:33:42;33.20;36.60
7516;DHT22;3799;47.184;8.538;2022-07-09T13:36:07;33.40;36.30
7516;DHT22;3799;47.184;8.538;2022-07-09T13:38:34;33.60;36.20
7516;DHT22;3799;47.184;8.538;2022-07-09T13:41:01;33.60;36.00
7516;DHT22;3799;47.184;8.538;2022-07-09T13:43:27;33.50;36.10
7516;DHT22;3799;47.184;8.538;2022-07-09T13:45:55;33.30;36.10
7516;DHT22;3799;47.184;8.538;2022-07-09T13:48:22;33.40;35.60
7516;DHT22;3799;47.184;8.538;2022-07-09T13:50:48;33.30;35.70
7516;DHT22;3799;47.184;8.538;2022-07-09T13:53:13;33.50;35.30
7516;DHT22;3799;47.184;8.538;2022-07-09T13:55:39;33.70;35.20
7516;DHT22;3799;47.184;8.538;2022-07-09T13:58:05;34.00;34.70
7516;DHT22;3799;47.184;8.538;2022-07-09T14:00:30;34.40;35.00
7516;DHT22;3799;47.184;8.538;2022-07-09T14:03:07;34.60;35.40
7516;DHT22;3799;47.184;8.538;2022-07-09T14:05:33;34.50;34.60
7516;DHT22;3799;47.184;8.538;2022-07-09T14:07:58;34.30;34.20
7516;DHT22;3799;47.184;8.538;2022-07-09T14:10:25;34.30;34.50
7516;DHT22;3799;47.184;8.538;2022-07-09T14:12:51;34.40;34.70
7516;DHT22;3799;47.184;8.538;2022-07-09T14:15:17;34.50;34.40
7516;DHT22;3799;47.184;8.538;2022-07-09T14:17:43;34.30;33.70
7516;DHT22;3799;47.184;8.538;2022-07-09T14:20:09;34.30;34.10
7516;DHT22;3799;47.184;8.538;2022-07-09T14:22:35;34.40;33.50
7516;DHT22;3799;47.184;8.538;2022-07-09T14:25:01;34.40;32.20
7516;DHT22;3799;47.184;8.538;2022-07-09T14:27:27;34.60;33.60
7516;DHT22;3799;47.184;8.538;2022-07-09T14:29:53;34.70;33.60
7516;DHT22;3799;47.184;8.538;2022-07-09T14:32:18;34.80;33.30
7516;DHT22;3799;47.184;8.538;2022-07-09T14:34:44;35.10;33.20
7516;DHT22;3799;47.184;8.538;2022-07-09T14:37:10;35.10;32.90
7516;DHT22;3799;47.184;8.538;2022-07-09T14:39:36;35.10;33.40
7516;DHT22;3799;47.184;8.538;2022-07-09T14:42:02;35.30;33.10
7516;DHT22;3799;47.184;8.538;2022-07-09T14:44:28;35.30;32.80
7516;DHT22;3799;47.184;8.538;2022-07-09T14:46:57;35.40;33.40
7516;DHT22;3799;47.184;8.538;2022-07-09T14:49:25;35.50;32.80
7516;DHT22;3799;47.184;8.538;2022-07-09T14:51:51;35.70;32.30
7516;DHT22;3799;47.184;8.538;2022-07-09T14:54:17;35.80;32.10
7516;DHT22;3799;47.184;8.538;2022-07-09T14:56:43;36.00;31.10
7516;DHT22;3799;47.184;8.538;2022-07-09T14:59:09;36.00;31.20
7516;DHT22;3799;47.184;8.538;2022-07-09T15:01:39;35.90;32.30
7516;DHT22;3799;47.184;8.538;2022-07-09T15:04:04;36.00;31.00
7516;DHT22;3799;47.184;8.538;2022-07-09T15:06:30;36.20;31.10
7516;DHT22;3799;47.184;8.538;2022-07-09T15:08:56;36.40;31.50
7516;DHT22;3799;47.184;8.538;2022-07-09T15:11:22;36.40;31.70
7516;DHT22;3799;47.184;8.538;2022-07-09T15:13:47;36.00;31.60
7516;DHT22;3799;47.184;8.538;2022-07-09T15:16:13;35.80;31.40
7516;DHT22;3799;47.184;8.538;2022-07-09T15:18:39;35.60;32.30
7516;DHT22;3799;47.184;8.538;2022-07-09T15:21:05;35.60;31.40
7516;DHT22;3799;47.184;8.538;2022-07-09T15:23:30;35.80;31.40
7516;DHT22;3799;47.184;8.538;2022-07-09T15:25:56;36.00;31.10
7516;DHT22;3799;47.184;8.538;2022-07-09T15:28:24;35.90;30.80
7516;DHT22;3799;47.184;8.538;2022-07-09T15:30:50;35.70;31.00
7516;DHT22;3799;47.184;8.538;2022-07-09T15:33:16;35.80;31.00
7516;DHT22;3799;47.184;8.538;2022-07-09T15:35:42;35.80;32.30
7516;DHT22;3799;47.184;8.538;2022-07-09T15:38:09;35.80;31.50
7516;DHT22;3799;47.184;8.538;2022-07-09T15:40:37;35.90;31.70
7516;DHT22;3799;47.184;8.538;2022-07-09T15:43:04;36.10;31.40
7516;DHT22;3799;47.184;8.538;2022-07-09T15:45:32;36.30;31.20
7516;DHT22;3799;47.184;8.538;2022-07-09T15:47:58;36.20;31.10
7516;DHT22;3799;47.184;8.538;2022-07-09T15:50:24;36.20;31.40
7516;DHT22;3799;47.184;8.538;2022-07-09T15:52:49;36.20;31.80
7516;DHT22;3799;47.184;8.538;2022-07-09T15:55:15;36.30;31.50
7516;DHT22;3799;47.184;8.538;2022-07-09T15:57:41;36.10;31.10
7516;DHT22;3799;47.184;8.538;2022-07-09T16:00:09;35.90;32.20
7516;DHT22;3799;47.184;8.538;2022-07-09T16:02:35;35.60;31.00
7516;DHT22;3799;47.184;8.538;2022-07-09T16:05:03;35.20;33.60
7516;DHT22;3799;47.184;8.538;2022-07-09T16:07:30;34.80;33.10
7516;DHT22;3799;47.184;8.538;2022-07-09T16:09:59;34.70;32.60